createdAt,value
2018-04-30T00:00:25.877Z,9.30
2018-04-30T00:05:34.066Z,11.93
2018-04-30T00:10:35.325Z,13.67
2018-04-30T00:15:36.720Z,6.33
2018-04-30T00:20:38.034Z,11.97
2018-04-30T00:25:39.333Z,8.73
2018-04-30T00:30:40.626Z,6.90
2018-04-30T00:35:41.962Z,7.07
2018-04-30T00:40:43.295Z,9.50
2018-04-30T00:45:44.618Z,24.03
2018-04-30T00:50:46.701Z,13.10
2018-04-30T00:55:48.014Z,11.90
2018-04-30T01:00:50.094Z,11.00
2018-04-30T01:05:51.401Z,14.57
2018-04-30T01:10:53.461Z,8.13
2018-04-30T01:15:54.805Z,19.10
2018-04-30T01:20:56.885Z,19.37
2018-04-30T01:25:58.177Z,9.63
2018-04-30T01:30:59.505Z,11.53
2018-04-30T01:36:00.805Z,9.57
2018-04-30T01:41:02.148Z,15.77
2018-04-30T01:46:03.462Z,10.00
2018-04-30T01:51:05.501Z,11.10
2018-04-30T01:56:06.827Z,11.30
2018-04-30T02:01:08.183Z,13.33
2018-04-30T02:06:09.502Z,12.10
2018-04-30T02:11:10.854Z,14.93
2018-04-30T02:16:12.217Z,10.23
2018-04-30T02:21:14.306Z,11.30
2018-04-30T02:26:16.358Z,21.13
2018-04-30T02:31:17.685Z,12.00
2018-04-30T02:36:19.018Z,13.20
2018-04-30T02:41:20.360Z,12.23
2018-04-30T02:46:21.673Z,20.63
2018-04-30T02:51:23.722Z,13.07
2018-04-30T02:56:25.084Z,15.60
2018-04-30T03:01:27.170Z,11.67
2018-04-30T03:06:28.497Z,11.03
2018-04-30T03:11:29.834Z,12.97
2018-04-30T03:16:31.181Z,15.97
2018-04-30T03:21:32.477Z,17.33
2018-04-30T03:26:33.810Z,14.90
2018-04-30T03:31:35.109Z,18.50
2018-04-30T03:36:37.166Z,18.13
2018-04-30T03:41:38.510Z,25.07
2018-04-30T03:46:40.550Z,13.57
2018-04-30T03:51:41.858Z,19.50
2018-04-30T03:56:43.165Z,19.53
2018-04-30T04:02:02.977Z,17.87
2018-04-30T04:07:04.355Z,16.47
2018-04-30T04:12:05.649Z,19.40
2018-04-30T04:17:06.965Z,18.97
2018-04-30T04:22:08.278Z,20.60
2018-04-30T04:27:10.329Z,21.10
2018-04-30T04:32:11.651Z,19.00
2018-04-30T04:37:12.969Z,18.83
2018-04-30T04:42:15.033Z,18.83
2018-04-30T04:47:16.346Z,16.37
2018-04-30T04:52:17.663Z,16.60
2018-04-30T04:57:18.969Z,19.40
2018-04-30T05:02:20.332Z,16.27
2018-04-30T05:07:21.609Z,22.30
2018-04-30T05:12:23.662Z,20.37
2018-04-30T05:17:25.006Z,20.00
2018-04-30T05:22:27.284Z,15.30
2018-04-30T05:27:29.628Z,18.30
2018-04-30T05:32:31.684Z,15.17
2018-04-30T05:37:33.001Z,22.23
2018-04-30T05:42:34.313Z,17.87
2018-04-30T05:47:36.345Z,14.47
2018-04-30T05:52:37.663Z,17.87
2018-04-30T05:57:38.987Z,16.00
2018-04-30T06:02:40.310Z,17.30
2018-04-30T06:07:41.629Z,19.07
2018-04-30T06:12:42.943Z,16.13
2018-04-30T06:17:44.258Z,17.03
2018-04-30T06:22:45.569Z,14.70
2018-04-30T06:27:46.882Z,15.20
2018-04-30T06:32:48.185Z,18.37
2018-04-30T06:37:49.723Z,19.57
2018-04-30T06:42:51.072Z,19.40
2018-04-30T06:47:52.486Z,20.27
2018-04-30T06:52:53.817Z,20.20
2018-04-30T06:57:55.156Z,26.10
2018-04-30T07:02:56.480Z,25.60
2018-04-30T07:07:58.510Z,24.03
2018-04-30T07:12:59.830Z,21.10
2018-04-30T07:18:01.153Z,21.27
2018-04-30T07:23:03.225Z,20.53
2018-04-30T07:28:04.545Z,27.37
2018-04-30T07:33:06.677Z,28.37
2018-04-30T07:38:07.961Z,25.23
2018-04-30T07:43:09.257Z,25.03
2018-04-30T07:48:10.611Z,24.37
2018-04-30T07:53:11.930Z,20.77
2018-04-30T07:58:13.290Z,17.70
2018-04-30T08:03:14.697Z,6.77
2018-04-30T08:08:16.009Z,3.70
2018-04-30T08:13:17.309Z,4.80
2018-04-30T08:18:18.639Z,3.60
2018-04-30T08:23:19.968Z,2.37
2018-04-30T08:28:21.291Z,2.00
2018-04-30T08:33:22.606Z,2.23
2018-04-30T08:38:23.925Z,2.27
2018-04-30T08:43:25.990Z,1.47
2018-04-30T08:48:27.321Z,1.50
2018-04-30T08:53:29.365Z,1.40
2018-04-30T08:58:30.723Z,1.50
2018-04-30T09:03:32.773Z,1.13
2018-04-30T09:08:34.067Z,0.93
2018-04-30T09:13:35.377Z,0.60
2018-04-30T09:18:36.766Z,0.60
2018-04-30T09:23:38.101Z,1.20
2018-04-30T09:28:39.407Z,0.60
2018-04-30T09:33:40.737Z,0.63
2018-04-30T09:38:42.065Z,0.97
2018-04-30T09:43:43.361Z,0.60
2018-04-30T09:48:44.686Z,0.67
2018-04-30T09:53:46.006Z,0.83
2018-04-30T09:58:48.086Z,0.63
2018-04-30T10:03:49.416Z,0.60
2018-04-30T10:08:51.496Z,0.60
2018-04-30T10:13:52.831Z,0.50
2018-04-30T10:18:54.150Z,0.60
2018-04-30T10:23:55.505Z,0.50
2018-04-30T10:28:56.835Z,0.70
2018-04-30T10:33:58.150Z,0.60
2018-04-30T10:38:59.481Z,1.63
2018-04-30T10:44:00.818Z,0.80
2018-04-30T10:49:02.147Z,0.60
2018-04-30T10:54:03.483Z,0.80
2018-04-30T10:59:04.830Z,0.70
2018-04-30T11:04:06.134Z,0.70
2018-04-30T11:09:07.446Z,0.80
2018-04-30T11:14:08.788Z,0.83
2018-04-30T11:19:10.102Z,2.97
2018-04-30T11:24:11.438Z,1.80
2018-04-30T11:29:12.803Z,0.80
2018-04-30T11:34:14.121Z,0.97
2018-04-30T11:39:17.201Z,1.00
2018-04-30T11:44:18.553Z,1.00
2018-04-30T11:49:19.902Z,0.80
2018-04-30T11:54:21.869Z,0.90
2018-04-30T11:59:23.219Z,0.80
2018-04-30T12:04:24.653Z,0.90
2018-04-30T12:09:26.018Z,0.70
2018-04-30T12:14:27.415Z,1.37
2018-04-30T12:19:29.466Z,1.83
2018-04-30T12:24:30.773Z,0.87
2018-04-30T12:29:32.183Z,0.90
2018-04-30T12:34:33.589Z,1.00
2018-04-30T12:39:35.650Z,0.90
2018-04-30T12:44:36.978Z,1.00
2018-04-30T12:49:39.226Z,9.87
2018-04-30T12:54:40.573Z,3.07
2018-04-30T12:59:41.917Z,0.60
2018-04-30T13:04:43.242Z,1.00
2018-04-30T13:09:44.568Z,0.90
2018-04-30T13:14:45.897Z,0.70
2018-04-30T13:19:47.260Z,1.03
2018-04-30T13:24:48.596Z,2.03
2018-04-30T13:29:49.943Z,0.77
2018-04-30T13:34:51.267Z,0.70
2018-04-30T13:39:53.207Z,0.90
2018-04-30T13:44:55.294Z,2.00
2018-04-30T13:49:56.634Z,3.03
2018-04-30T13:54:57.950Z,1.03
2018-04-30T13:59:59.283Z,0.80
2018-04-30T14:05:01.560Z,2.57
2018-04-30T14:10:02.903Z,1.30
2018-04-30T14:15:04.281Z,0.80
2018-04-30T14:20:06.320Z,1.00
2018-04-30T14:25:07.652Z,0.80
2018-04-30T14:30:11.721Z,0.70
2018-04-30T14:35:13.805Z,0.90
2018-04-30T14:40:15.233Z,0.70
2018-04-30T14:45:17.279Z,1.20
2018-04-30T14:50:18.654Z,2.07
2018-04-30T14:55:19.957Z,1.70
2018-04-30T15:00:21.276Z,3.23
2018-04-30T15:05:22.601Z,1.70
2018-04-30T15:10:24.659Z,1.03
2018-04-30T15:15:26.026Z,0.97
2018-04-30T15:20:27.359Z,0.90
2018-04-30T15:25:28.677Z,0.80
2018-04-30T15:30:30.705Z,0.70
2018-04-30T15:35:32.058Z,1.33
2018-04-30T15:40:34.113Z,0.73
2018-04-30T15:45:35.437Z,0.70
2018-04-30T15:50:36.741Z,0.90
2018-04-30T15:55:38.790Z,1.57
2018-04-30T16:00:40.138Z,0.70
2018-04-30T16:05:42.207Z,1.20
2018-04-30T16:10:43.518Z,0.60
2018-04-30T16:15:44.874Z,1.23
2018-04-30T16:20:46.214Z,0.60
2018-04-30T16:25:48.290Z,0.90
2018-04-30T16:30:49.621Z,0.90
2018-04-30T16:35:51.681Z,1.17
2018-04-30T16:40:53.022Z,2.80
2018-04-30T16:45:54.367Z,1.50
2018-04-30T16:50:55.727Z,1.07
2018-04-30T16:55:57.065Z,2.27
2018-04-30T17:00:58.413Z,1.87
2018-04-30T17:05:59.749Z,5.57
2018-04-30T17:11:01.854Z,0.60
2018-04-30T17:16:03.951Z,0.80
2018-04-30T17:21:05.286Z,0.60
2018-04-30T17:26:06.669Z,0.70
2018-04-30T17:31:09.671Z,0.70
2018-04-30T17:36:11.334Z,3.70
2018-04-30T17:41:12.668Z,0.90
2018-04-30T17:46:14.950Z,1.63
2018-04-30T17:51:16.375Z,0.50
2018-04-30T17:56:18.587Z,2.97
2018-04-30T18:01:19.969Z,0.60
2018-04-30T18:06:21.340Z,0.60
2018-04-30T18:11:23.492Z,0.60
2018-04-30T18:16:24.859Z,0.60
2018-04-30T18:21:26.252Z,0.57
2018-04-30T18:26:27.648Z,6.53
2018-04-30T18:31:28.946Z,0.77
2018-04-30T18:36:31.109Z,1.13
2018-04-30T18:41:32.409Z,0.63
2018-04-30T18:46:33.730Z,7.50
2018-04-30T18:51:35.801Z,1.47
2018-04-30T18:56:37.127Z,0.90
2018-04-30T19:01:39.213Z,0.77
2018-04-30T19:06:40.574Z,0.60
2018-04-30T19:11:41.930Z,0.60
2018-04-30T19:16:43.453Z,1.13
2018-04-30T19:21:44.809Z,0.97
2018-04-30T19:26:46.153Z,1.17
2018-04-30T19:31:47.476Z,1.03
2018-04-30T19:36:49.565Z,0.70
2018-04-30T19:41:50.890Z,0.70
2018-04-30T19:46:52.236Z,1.43
2018-04-30T19:51:53.570Z,0.63
2018-04-30T19:56:54.895Z,0.60
2018-04-30T20:01:56.374Z,0.60
2018-04-30T20:06:57.714Z,0.60
2018-04-30T20:11:59.200Z,0.60
2018-04-30T20:17:00.537Z,0.50
2018-04-30T20:22:01.895Z,1.10
2018-04-30T20:27:03.941Z,0.50
2018-04-30T20:32:05.294Z,0.60
2018-04-30T20:37:07.349Z,0.53
2018-04-30T20:42:08.662Z,0.50
2018-04-30T20:47:10.005Z,0.50
2018-04-30T20:52:11.321Z,0.80
2018-04-30T20:57:12.645Z,0.50
2018-04-30T21:02:13.981Z,1.07
2018-04-30T21:07:15.350Z,0.50
2018-04-30T21:12:17.614Z,0.60
2018-04-30T21:17:19.009Z,0.50
2018-04-30T21:22:20.293Z,0.60
2018-04-30T21:27:21.618Z,0.50
2018-04-30T21:32:23.683Z,0.60
2018-04-30T21:37:25.013Z,0.60
2018-04-30T21:42:27.062Z,0.90
2018-04-30T21:47:28.433Z,0.50
2018-04-30T21:52:30.457Z,0.80
2018-04-30T21:57:31.774Z,1.43
2018-04-30T22:02:33.142Z,1.10
2018-04-30T22:07:34.457Z,0.57
2018-04-30T22:12:35.810Z,3.50
2018-04-30T22:17:37.122Z,0.60
2018-04-30T22:22:38.439Z,2.13
2018-04-30T22:27:39.776Z,1.80
2018-04-30T22:32:41.091Z,0.87
2018-04-30T22:37:42.393Z,0.87
2018-04-30T22:42:43.712Z,0.90
2018-04-30T22:47:45.025Z,1.93
2018-04-30T22:52:46.325Z,0.53
2018-04-30T22:57:47.638Z,0.50
2018-04-30T23:02:49.765Z,0.70
2018-04-30T23:07:51.105Z,0.67
2018-04-30T23:12:52.449Z,0.60
2018-04-30T23:17:53.767Z,0.60
2018-04-30T23:22:55.110Z,0.80
2018-04-30T23:27:56.429Z,0.50
2018-04-30T23:32:58.515Z,1.10
2018-04-30T23:37:59.814Z,0.50
2018-04-30T23:43:01.134Z,0.90
2018-04-30T23:48:02.445Z,0.60
2018-04-30T23:53:03.775Z,0.70
2018-04-30T23:58:05.090Z,1.50
